createdAt,value
2018-02-07T00:01:02.329Z,100605.43
2018-02-07T00:03:30.825Z,100617.97
2018-02-07T00:05:59.377Z,100625.38
2018-02-07T00:08:27.901Z,100623.96
2018-02-07T00:10:56.370Z,100622.74
2018-02-07T00:13:24.929Z,100625.41
2018-02-07T00:15:53.417Z,100633.20
2018-02-07T00:18:21.918Z,100635.06
2018-02-07T00:20:50.462Z,100636.27
2018-02-07T00:23:18.925Z,100634.23
2018-02-07T00:25:47.439Z,100636.17
2018-02-07T00:28:15.923Z,100634.03
2018-02-07T00:30:44.393Z,100632.72
2018-02-07T00:33:12.904Z,100615.80
2018-02-07T00:35:41.388Z,100628.48
2018-02-07T00:38:09.881Z,100632.06
2018-02-07T00:40:38.381Z,100628.93
2018-02-07T00:43:06.867Z,100623.55
2018-02-07T00:45:35.369Z,100620.72
2018-02-07T00:48:03.857Z,100619.89
2018-02-07T00:50:32.361Z,100617.48
2018-02-07T00:53:00.885Z,100614.03
2018-02-07T00:55:29.363Z,100613.69
2018-02-07T00:57:57.871Z,100613.00
2018-02-07T01:00:26.407Z,100604.86
2018-02-07T01:02:54.867Z,100610.30
2018-02-07T01:05:23.361Z,100613.86
2018-02-07T01:07:51.889Z,100607.73
2018-02-07T01:10:20.389Z,100604.79
2018-02-07T01:12:48.913Z,100585.83
2018-02-07T01:15:17.415Z,100587.93
2018-02-07T01:17:45.934Z,100594.45
2018-02-07T01:20:14.397Z,100593.40
2018-02-07T01:22:42.956Z,100588.03
2018-02-07T01:25:11.484Z,100589.34
2018-02-07T01:27:39.982Z,100584.76
2018-02-07T01:30:08.493Z,100571.89
2018-02-07T01:32:36.995Z,100576.95
2018-02-07T01:35:05.465Z,100570.01
2018-02-07T01:37:33.977Z,100570.59
2018-02-07T01:40:02.479Z,100563.63
2018-02-07T01:42:31.053Z,100563.52
2018-02-07T01:44:59.566Z,100568.66
2018-02-07T01:47:28.046Z,100572.66
2018-02-07T01:49:56.562Z,100561.28
2018-02-07T01:52:25.106Z,100547.81
2018-02-07T01:54:53.578Z,100552.64
2018-02-07T01:57:22.046Z,100557.67
2018-02-07T01:59:50.545Z,100560.19
2018-02-07T02:02:19.009Z,100561.19
2018-02-07T02:04:47.541Z,100550.16
2018-02-07T02:07:16.037Z,100548.53
2018-02-07T02:09:44.583Z,100551.02
2018-02-07T02:12:13.046Z,100542.67
2018-02-07T02:14:41.577Z,100533.99
2018-02-07T02:17:10.087Z,100534.12
2018-02-07T02:19:38.637Z,100509.18
2018-02-07T02:22:07.105Z,100524.34
2018-02-07T02:24:35.562Z,100523.34
2018-02-07T02:27:04.080Z,100538.26
2018-02-07T02:29:32.542Z,100537.14
2018-02-07T02:32:01.055Z,100534.05
2018-02-07T02:34:29.578Z,100535.19
2018-02-07T02:36:58.098Z,100534.11
2018-02-07T02:39:26.913Z,100528.17
2018-02-07T02:41:55.381Z,100531.85
2018-02-07T02:44:23.906Z,100549.86
2018-02-07T02:46:52.366Z,100553.27
2018-02-07T02:49:20.867Z,100551.32
2018-02-07T02:51:49.332Z,100560.34
2018-02-07T02:54:17.832Z,100561.51
2018-02-07T02:56:46.333Z,100558.22
2018-02-07T02:59:14.797Z,100538.45
2018-02-07T03:01:43.299Z,100553.86
2018-02-07T03:04:11.777Z,100557.94
2018-02-07T03:06:40.285Z,100546.28
2018-02-07T03:09:08.789Z,100562.80
2018-02-07T03:11:37.289Z,100564.41
2018-02-07T03:14:05.741Z,100564.82
2018-02-07T03:16:34.257Z,100553.78
2018-02-07T03:19:02.749Z,100547.70
2018-02-07T03:21:31.235Z,100544.86
2018-02-07T03:23:59.745Z,100542.50
2018-02-07T03:26:28.261Z,100524.69
2018-02-07T03:28:56.773Z,100522.34
2018-02-07T03:31:25.219Z,100546.75
2018-02-07T03:33:53.690Z,100549.20
2018-02-07T03:36:22.206Z,100539.16
2018-02-07T03:38:50.676Z,100554.72
2018-02-07T03:41:19.173Z,100548.31
2018-02-07T03:43:47.633Z,100566.89
2018-02-07T03:46:16.150Z,100565.28
2018-02-07T03:48:44.659Z,100556.67
2018-02-07T03:51:13.130Z,100571.30
2018-02-07T03:53:41.625Z,100557.22
2018-02-07T03:56:10.096Z,100538.09
2018-02-07T03:58:38.621Z,100527.08
2018-02-07T04:01:07.084Z,100531.27
2018-02-07T04:03:35.561Z,100528.52
2018-02-07T04:06:04.058Z,100522.69
2018-02-07T04:08:32.569Z,100534.63
2018-02-07T04:11:01.033Z,100529.44
2018-02-07T04:13:29.517Z,100533.95
2018-02-07T04:15:58.022Z,100533.25
2018-02-07T04:18:26.481Z,100533.89
2018-02-07T04:20:54.942Z,100540.23
2018-02-07T04:23:23.437Z,100538.72
2018-02-07T04:25:51.909Z,100515.16
2018-02-07T04:28:20.414Z,100509.20
2018-02-07T04:30:48.873Z,100514.07
2018-02-07T04:33:17.369Z,100514.83
2018-02-07T04:35:46.824Z,100515.55
2018-02-07T04:38:15.315Z,100506.77
2018-02-07T04:40:43.826Z,100534.89
2018-02-07T04:43:12.281Z,100511.77
2018-02-07T04:45:40.782Z,100509.29
2018-02-07T04:48:09.247Z,100521.06
2018-02-07T04:50:37.741Z,100524.23
2018-02-07T04:53:06.218Z,100530.81
2018-02-07T04:55:34.713Z,100505.94
2018-02-07T04:58:03.189Z,100520.23
2018-02-07T05:00:31.697Z,100504.77
2018-02-07T05:03:00.175Z,100496.03
2018-02-07T05:05:28.620Z,100495.13
2018-02-07T05:07:57.131Z,100491.00
2018-02-07T05:10:25.610Z,100498.27
2018-02-07T05:12:54.121Z,100516.92
2018-02-07T05:15:22.562Z,100516.27
2018-02-07T05:17:51.031Z,100493.14
2018-02-07T05:20:19.525Z,100480.84
2018-02-07T05:22:48.002Z,100478.55
2018-02-07T05:25:16.472Z,100483.74
2018-02-07T05:27:44.990Z,100486.98
2018-02-07T05:30:13.448Z,100484.95
2018-02-07T05:32:41.913Z,100492.26
2018-02-07T05:35:10.424Z,100508.17
2018-02-07T05:37:38.932Z,100525.77
2018-02-07T05:40:07.407Z,100518.91
2018-02-07T05:42:35.909Z,100523.92
2018-02-07T05:45:04.429Z,100546.09
2018-02-07T05:47:32.889Z,100559.23
2018-02-07T05:50:01.419Z,100544.50
2018-02-07T05:52:29.885Z,100548.66
2018-02-07T05:54:58.386Z,100543.95
2018-02-07T05:57:26.893Z,100556.52
2018-02-07T05:59:55.409Z,100559.11
2018-02-07T06:02:23.881Z,100556.71
2018-02-07T06:04:52.381Z,100556.17
2018-02-07T06:07:20.902Z,100558.70
2018-02-07T06:09:49.387Z,100560.34
2018-02-07T06:12:17.891Z,100562.98
2018-02-07T06:14:46.369Z,100544.82
2018-02-07T06:17:14.870Z,100556.24
2018-02-07T06:19:43.334Z,100557.12
2018-02-07T06:22:11.910Z,100563.25
2018-02-07T06:24:40.429Z,100545.75
2018-02-07T06:27:08.926Z,100555.85
2018-02-07T06:29:37.434Z,100556.63
2018-02-07T06:32:06.031Z,100564.38
2018-02-07T06:34:34.499Z,100568.14
2018-02-07T06:37:02.961Z,100557.95
2018-02-07T06:39:31.466Z,100569.73
2018-02-07T06:42:00.006Z,100548.84
2018-02-07T06:44:28.553Z,100552.21
2018-02-07T06:46:57.046Z,100559.74
2018-02-07T06:49:25.529Z,100561.80
2018-02-07T06:51:54.082Z,100541.96
2018-02-07T06:54:22.591Z,100550.41
2018-02-07T06:56:51.106Z,100550.24
2018-02-07T06:59:19.638Z,100557.83
2018-02-07T07:01:48.098Z,100562.50
2018-02-07T07:04:16.652Z,100574.41
2018-02-07T07:06:45.162Z,100567.48
2018-02-07T07:09:13.666Z,100558.13
2018-02-07T07:11:42.150Z,100561.05
2018-02-07T07:14:10.664Z,100556.80
2018-02-07T07:16:39.233Z,100560.50
2018-02-07T07:19:07.696Z,100547.92
2018-02-07T07:21:36.202Z,100556.54
2018-02-07T07:24:04.690Z,100557.70
2018-02-07T07:26:33.154Z,100550.98
2018-02-07T07:29:01.650Z,100535.98
2018-02-07T07:31:30.121Z,100539.39
2018-02-07T07:33:58.649Z,100541.77
2018-02-07T07:36:27.134Z,100532.02
2018-02-07T07:38:55.677Z,100514.31
2018-02-07T07:41:24.146Z,100523.92
2018-02-07T07:43:52.685Z,100522.31
2018-02-07T07:46:21.285Z,100517.42
2018-02-07T07:48:49.781Z,100521.59
2018-02-07T07:51:18.324Z,100535.30
2018-02-07T07:53:46.771Z,100519.14
2018-02-07T07:56:15.246Z,100520.16
2018-02-07T07:58:43.746Z,100525.19
2018-02-07T08:01:12.206Z,100497.90
2018-02-07T08:03:40.714Z,100517.81
2018-02-07T08:06:09.174Z,100509.21
2018-02-07T08:08:37.676Z,100504.64
2018-02-07T08:11:06.182Z,100497.16
2018-02-07T08:13:34.649Z,100487.80
2018-02-07T08:16:03.151Z,100491.27
2018-02-07T08:18:31.673Z,100494.58
2018-02-07T08:21:00.182Z,100469.62
2018-02-07T08:23:28.646Z,100496.08
2018-02-07T08:25:57.165Z,100486.50
2018-02-07T08:28:25.637Z,100487.48
2018-02-07T08:30:54.129Z,100484.58
2018-02-07T08:33:22.633Z,100465.38
2018-02-07T08:35:51.109Z,100478.91
2018-02-07T08:38:19.640Z,100486.77
2018-02-07T08:40:48.157Z,100473.58
2018-02-07T08:43:16.617Z,100476.08
2018-02-07T08:45:45.073Z,100484.00
2018-02-07T08:48:13.568Z,100458.48
2018-02-07T08:50:42.037Z,100472.45
2018-02-07T08:53:10.572Z,100471.71
2018-02-07T08:55:39.124Z,100461.22
2018-02-07T08:58:07.708Z,100461.22
2018-02-07T09:00:36.219Z,100459.29
2018-02-07T09:03:04.763Z,100449.57
2018-02-07T09:05:33.263Z,100462.64
2018-02-07T09:08:01.742Z,100470.25
2018-02-07T09:10:30.226Z,100480.95
2018-02-07T09:12:58.721Z,100472.64
2018-02-07T09:15:27.210Z,100457.23
2018-02-07T09:17:55.769Z,100417.78
2018-02-07T09:20:24.229Z,100447.66
2018-02-07T09:22:52.744Z,100430.25
2018-02-07T09:25:21.309Z,100428.03
2018-02-07T09:27:49.849Z,100427.34
2018-02-07T09:30:18.483Z,100428.91
2018-02-07T09:32:46.985Z,100437.93
2018-02-07T09:35:15.451Z,100435.75
2018-02-07T09:37:43.986Z,100444.60
2018-02-07T09:40:12.431Z,100470.14
2018-02-07T09:42:40.973Z,100476.50
2018-02-07T09:45:09.525Z,100483.75
2018-02-07T09:47:38.018Z,100476.09
2018-02-07T09:50:06.474Z,100466.21
2018-02-07T09:52:34.991Z,100442.78
2018-02-07T09:55:03.471Z,100483.38
2018-02-07T09:57:31.942Z,100467.79
2018-02-07T10:00:00.448Z,100451.07
2018-02-07T10:02:28.991Z,100461.69
2018-02-07T10:04:57.491Z,100441.80
2018-02-07T10:07:26.012Z,100451.21
2018-02-07T10:09:54.486Z,100436.66
2018-02-07T10:12:22.972Z,100428.72
2018-02-07T10:14:51.482Z,100410.99
2018-02-07T10:17:19.994Z,100414.42
2018-02-07T10:19:48.497Z,100400.57
2018-02-07T10:22:16.974Z,100376.80
2018-02-07T10:24:45.438Z,100376.79
2018-02-07T10:27:13.945Z,100382.94
2018-02-07T10:29:42.458Z,100394.36
2018-02-07T10:32:10.928Z,100381.66
2018-02-07T10:34:39.440Z,100383.48
2018-02-07T10:37:07.958Z,100373.24
2018-02-07T10:39:36.438Z,100371.81
2018-02-07T10:42:04.905Z,100348.91
2018-02-07T10:44:33.409Z,100343.29
2018-02-07T10:47:01.879Z,100337.56
2018-02-07T10:49:30.386Z,100323.27
2018-02-07T10:51:58.871Z,100315.59
2018-02-07T10:54:27.387Z,100298.15
2018-02-07T10:56:55.861Z,100308.92
2018-02-07T10:59:24.334Z,100321.22
2018-02-07T11:01:52.809Z,100323.35
2018-02-07T11:04:21.361Z,100324.84
2018-02-07T11:06:49.830Z,100314.20
2018-02-07T11:09:18.329Z,100319.94
2018-02-07T11:11:46.810Z,100317.84
2018-02-07T11:14:15.317Z,100305.47
2018-02-07T11:16:43.809Z,100299.33
2018-02-07T11:19:12.291Z,100309.73
2018-02-07T11:21:40.794Z,100331.51
2018-02-07T11:24:09.264Z,100316.48
2018-02-07T11:26:37.781Z,100309.43
2018-02-07T11:29:06.249Z,100308.55
2018-02-07T11:31:34.732Z,100304.73
2018-02-07T11:34:03.345Z,100290.84
2018-02-07T11:36:31.813Z,100283.92
2018-02-07T11:39:00.304Z,100254.72
2018-02-07T11:41:28.863Z,100265.55
2018-02-07T11:43:57.359Z,100272.38
2018-02-07T11:46:25.817Z,100255.27
2018-02-07T11:48:54.319Z,100213.29
2018-02-07T11:51:22.783Z,100233.78
2018-02-07T11:53:51.282Z,100247.84
2018-02-07T11:56:19.796Z,100242.09
2018-02-07T11:58:48.293Z,100250.80
2018-02-07T12:01:16.761Z,100240.33
2018-02-07T12:03:45.266Z,100239.23
2018-02-07T12:06:13.728Z,100239.02
2018-02-07T12:08:42.194Z,100241.19
2018-02-07T12:11:10.694Z,100217.98
2018-02-07T12:13:39.213Z,100231.38
2018-02-07T12:16:07.678Z,100232.05
2018-02-07T12:18:36.185Z,100222.39
2018-02-07T12:21:04.703Z,100219.23
2018-02-07T12:23:33.167Z,100218.84
2018-02-07T12:26:01.669Z,100226.16
2018-02-07T12:28:30.137Z,100215.16
2018-02-07T12:30:58.633Z,100213.70
2018-02-07T12:33:27.109Z,100194.59
2018-02-07T12:35:55.614Z,100204.19
2018-02-07T12:38:24.080Z,100211.34
2018-02-07T12:40:53.502Z,100197.19
2018-02-07T12:43:21.986Z,100189.73
2018-02-07T12:45:50.458Z,100166.70
2018-02-07T12:48:18.958Z,100180.30
2018-02-07T12:50:47.450Z,100171.87
2018-02-07T12:53:15.977Z,100184.03
2018-02-07T12:55:44.461Z,100177.41
2018-02-07T12:58:12.977Z,100178.44
2018-02-07T13:00:41.452Z,100171.78
2018-02-07T13:03:09.962Z,100175.63
2018-02-07T13:05:38.447Z,100152.89
2018-02-07T13:08:06.943Z,100171.50
2018-02-07T13:10:35.463Z,100173.67
2018-02-07T13:13:03.973Z,100182.19
2018-02-07T13:15:32.473Z,100164.12
2018-02-07T13:18:00.939Z,100177.05
2018-02-07T13:20:29.445Z,100166.33
2018-02-07T13:22:57.912Z,100155.66
2018-02-07T13:25:26.421Z,100156.34
2018-02-07T13:27:54.875Z,100156.34
2018-02-07T13:30:23.380Z,100165.36
2018-02-07T13:32:51.849Z,100155.19
2018-02-07T13:35:20.362Z,100150.78
2018-02-07T13:37:48.843Z,100134.30
2018-02-07T13:40:17.362Z,100146.06
2018-02-07T13:42:45.838Z,100156.02
2018-02-07T13:45:14.394Z,100156.23
2018-02-07T13:47:42.858Z,100156.31
2018-02-07T13:50:11.407Z,100161.00
2018-02-07T13:52:39.915Z,100150.42
2018-02-07T13:55:08.421Z,100154.77
2018-02-07T13:57:36.918Z,100138.72
2018-02-07T14:00:05.484Z,100173.03
2018-02-07T14:02:34.002Z,100186.83
2018-02-07T14:05:02.479Z,100183.15
2018-02-07T14:07:30.996Z,100176.23
2018-02-07T14:09:59.475Z,100182.87
2018-02-07T14:12:27.981Z,100184.97
2018-02-07T14:14:56.441Z,100179.58
2018-02-07T14:17:24.946Z,100180.61
2018-02-07T14:19:53.429Z,100156.23
2018-02-07T14:22:21.888Z,100150.44
2018-02-07T14:24:50.390Z,100151.69
2018-02-07T14:27:18.861Z,100150.13
2018-02-07T14:29:47.357Z,100130.71
2018-02-07T14:32:15.807Z,100129.81
2018-02-07T14:34:44.310Z,100128.47
2018-02-07T14:37:12.798Z,100122.34
2018-02-07T14:39:41.314Z,100116.30
2018-02-07T14:42:09.785Z,100115.49
2018-02-07T14:44:38.313Z,100127.30
2018-02-07T14:47:06.788Z,100118.25
2018-02-07T14:49:35.245Z,100110.69
2018-02-07T14:52:03.718Z,100143.89
2018-02-07T14:54:33.006Z,100150.54
2018-02-07T14:57:01.515Z,100138.48
2018-02-07T14:59:29.973Z,100136.72
2018-02-07T15:01:58.478Z,100129.05
2018-02-07T15:04:26.993Z,100119.29
2018-02-07T15:06:55.505Z,100117.23
2018-02-07T15:09:23.999Z,100130.70
2018-02-07T15:11:52.489Z,100128.00
2018-02-07T15:14:21.040Z,100122.31
2018-02-07T15:16:49.560Z,100102.58
2018-02-07T15:19:18.061Z,100087.73
2018-02-07T15:21:46.536Z,100081.34
2018-02-07T15:24:15.049Z,100088.58
2018-02-07T15:26:43.578Z,100078.09
2018-02-07T15:29:12.085Z,100040.04
2018-02-07T15:31:40.617Z,100077.37
2018-02-07T15:34:09.115Z,100045.52
2018-02-07T15:36:37.591Z,100070.53
2018-02-07T15:39:06.107Z,100073.31
2018-02-07T15:41:34.590Z,100089.73
2018-02-07T15:44:03.053Z,100085.66
2018-02-07T15:46:31.597Z,100085.95
2018-02-07T15:49:00.054Z,100086.02
2018-02-07T15:51:28.558Z,100101.86
2018-02-07T15:53:57.147Z,100075.03
2018-02-07T15:56:25.614Z,100092.27
2018-02-07T15:58:54.111Z,100094.44
2018-02-07T16:01:22.634Z,100096.62
2018-02-07T16:03:51.146Z,100093.72
2018-02-07T16:06:19.610Z,100104.15
2018-02-07T16:08:48.129Z,100078.71
2018-02-07T16:11:16.634Z,100093.70
2018-02-07T16:13:45.138Z,100092.16
2018-02-07T16:16:13.610Z,100101.32
2018-02-07T16:18:42.110Z,100093.28
2018-02-07T16:21:10.617Z,100092.77
2018-02-07T16:23:39.117Z,100117.67
2018-02-07T16:26:07.581Z,100094.42
2018-02-07T16:28:36.085Z,100104.28
2018-02-07T16:31:04.589Z,100119.95
2018-02-07T16:33:33.074Z,100134.90
2018-02-07T16:36:01.531Z,100116.42
2018-02-07T16:38:30.020Z,100097.84
2018-02-07T16:40:58.485Z,100088.72
2018-02-07T16:43:26.969Z,100099.38
2018-02-07T16:45:55.469Z,100095.86
2018-02-07T16:48:24.006Z,100111.80
2018-02-07T16:50:52.506Z,100113.92
2018-02-07T16:53:21.011Z,100104.27
2018-02-07T16:55:49.520Z,100101.25
2018-02-07T16:58:17.984Z,100099.30
2018-02-07T17:00:46.448Z,100101.47
2018-02-07T17:03:14.941Z,100100.12
2018-02-07T17:05:43.467Z,100087.43
2018-02-07T17:08:11.985Z,100094.97
2018-02-07T17:10:40.475Z,100103.97
2018-02-07T17:13:08.941Z,100085.01
2018-02-07T17:15:37.443Z,100102.54
2018-02-07T17:18:05.933Z,100098.75
2018-02-07T17:20:34.403Z,100099.24
2018-02-07T17:23:02.911Z,100117.12
2018-02-07T17:25:31.407Z,100115.89
2018-02-07T17:27:59.910Z,100119.95
2018-02-07T17:30:28.369Z,100115.36
2018-02-07T17:32:56.915Z,100111.92
2018-02-07T17:35:25.797Z,100102.20
2018-02-07T17:37:54.254Z,100108.91
2018-02-07T17:40:22.726Z,100107.54
2018-02-07T17:42:51.230Z,100100.25
2018-02-07T17:45:19.698Z,100106.27
2018-02-07T17:47:48.209Z,100120.79
2018-02-07T17:50:16.709Z,100109.98
2018-02-07T17:52:45.209Z,100104.55
2018-02-07T17:55:13.713Z,100110.34
2018-02-07T17:57:42.177Z,100115.31
2018-02-07T18:00:10.700Z,100106.92
2018-02-07T18:02:39.232Z,100110.73
2018-02-07T18:05:07.757Z,100111.66
2018-02-07T18:07:36.253Z,100115.63
2018-02-07T18:10:04.782Z,100104.56
2018-02-07T18:12:33.261Z,100076.55
2018-02-07T18:15:01.741Z,100092.31
2018-02-07T18:17:30.245Z,100088.03
2018-02-07T18:19:58.705Z,100085.39
2018-02-07T18:22:27.186Z,100071.57
2018-02-07T18:24:55.690Z,100049.16
2018-02-07T18:27:24.150Z,100064.41
2018-02-07T18:29:52.609Z,100066.91
2018-02-07T18:32:21.108Z,100066.87
2018-02-07T18:34:49.645Z,100076.34
2018-02-07T18:37:18.150Z,100051.89
2018-02-07T18:39:46.654Z,100037.33
2018-02-07T18:42:15.180Z,100047.55
2018-02-07T18:44:43.644Z,100065.86
2018-02-07T18:47:12.110Z,100052.82
2018-02-07T18:49:40.614Z,100057.73
2018-02-07T18:52:09.077Z,100048.03
2018-02-07T18:54:37.537Z,100026.93
2018-02-07T18:57:06.041Z,100038.06
2018-02-07T18:59:34.518Z,100030.97
2018-02-07T19:02:02.985Z,99991.87
2018-02-07T19:04:31.499Z,99999.86
2018-02-07T19:06:59.986Z,99998.74
2018-02-07T19:09:28.661Z,99995.64
2018-02-07T19:11:57.188Z,99979.19
2018-02-07T19:14:25.687Z,99976.23
2018-02-07T19:16:54.182Z,99981.66
2018-02-07T19:19:22.681Z,99969.19
2018-02-07T19:21:51.208Z,99992.06
2018-02-07T19:24:19.670Z,99989.74
2018-02-07T19:26:48.133Z,99971.67
2018-02-07T19:29:16.632Z,99953.78
2018-02-07T19:31:45.086Z,99933.30
2018-02-07T19:34:13.569Z,99929.05
2018-02-07T19:36:42.025Z,99928.84
2018-02-07T19:39:10.517Z,99918.81
2018-02-07T19:41:39.009Z,99931.45
2018-02-07T19:44:07.528Z,99925.95
2018-02-07T19:46:36.036Z,99904.98
2018-02-07T19:49:04.529Z,99925.20
2018-02-07T19:51:32.990Z,99940.13
2018-02-07T19:54:01.528Z,99921.35
2018-02-07T19:56:30.016Z,99909.97
2018-02-07T19:58:58.481Z,99914.64
2018-02-07T20:01:26.969Z,99926.34
2018-02-07T20:03:55.457Z,99924.62
2018-02-07T20:06:23.957Z,99920.08
2018-02-07T20:08:52.413Z,99893.66
2018-02-07T20:11:20.882Z,99895.26
2018-02-07T20:13:49.386Z,99912.47
2018-02-07T20:16:17.898Z,99917.77
2018-02-07T20:18:46.389Z,99916.13
2018-02-07T20:21:14.853Z,99907.73
2018-02-07T20:23:43.365Z,99903.20
2018-02-07T20:26:11.831Z,99892.30
2018-02-07T20:28:40.340Z,99882.36
2018-02-07T20:31:08.802Z,99885.88
2018-02-07T20:33:37.300Z,99891.38
2018-02-07T20:36:05.803Z,99881.55
2018-02-07T20:38:34.312Z,99844.57
2018-02-07T20:41:02.773Z,99850.66
2018-02-07T20:43:31.277Z,99860.51
2018-02-07T20:45:59.729Z,99874.50
2018-02-07T20:48:28.222Z,99866.63
2018-02-07T20:50:56.721Z,99866.41
2018-02-07T20:53:25.181Z,99867.98
2018-02-07T20:55:53.686Z,99868.41
2018-02-07T20:58:22.155Z,99859.06
2018-02-07T21:00:50.653Z,99851.39
2018-02-07T21:03:19.146Z,99857.41
2018-02-07T21:05:47.649Z,99835.66
2018-02-07T21:08:16.138Z,99843.41
2018-02-07T21:10:44.633Z,99834.21
2018-02-07T21:13:13.121Z,99847.23
2018-02-07T21:15:41.589Z,99838.97
2018-02-07T21:18:10.122Z,99836.27
2018-02-07T21:20:38.579Z,99823.14
2018-02-07T21:23:07.069Z,99825.70
2018-02-07T21:25:35.511Z,99814.59
2018-02-07T21:28:04.031Z,99816.37
2018-02-07T21:30:32.507Z,99818.55
2018-02-07T21:33:01.013Z,99814.70
2018-02-07T21:35:29.479Z,99817.91
2018-02-07T21:37:57.957Z,99823.51
2018-02-07T21:40:26.841Z,99825.69
2018-02-07T21:42:55.310Z,99826.34
2018-02-07T21:45:23.821Z,99826.11
2018-02-07T21:47:52.366Z,99832.34
2018-02-07T21:50:20.817Z,99815.37
2018-02-07T21:52:49.277Z,99814.94
2018-02-07T21:55:17.760Z,99797.77
2018-02-07T21:57:46.265Z,99778.91
2018-02-07T22:00:14.770Z,99772.39
2018-02-07T22:02:43.219Z,99750.54
2018-02-07T22:05:11.723Z,99759.43
2018-02-07T22:07:40.190Z,99778.56
2018-02-07T22:10:08.708Z,99763.37
2018-02-07T22:12:37.180Z,99755.92
2018-02-07T22:15:05.679Z,99728.39
2018-02-07T22:17:34.170Z,99727.16
2018-02-07T22:20:02.634Z,99741.94
2018-02-07T22:22:31.165Z,99747.86
2018-02-07T22:24:59.673Z,99759.64
2018-02-07T22:27:28.155Z,99747.12
2018-02-07T22:29:56.664Z,99733.34
2018-02-07T22:32:25.169Z,99734.40
2018-02-07T22:34:53.629Z,99712.86
2018-02-07T22:37:22.144Z,99700.34
2018-02-07T22:39:50.602Z,99702.00
2018-02-07T22:42:19.067Z,99719.70
2018-02-07T22:44:47.579Z,99705.53
2018-02-07T22:47:16.086Z,99692.28
2018-02-07T22:49:44.563Z,99690.59
2018-02-07T22:52:13.025Z,99687.70
2018-02-07T22:54:41.547Z,99695.38
2018-02-07T22:57:10.077Z,99686.45
2018-02-07T22:59:38.614Z,99682.55
2018-02-07T23:02:07.077Z,99680.16
2018-02-07T23:04:35.602Z,99663.62
2018-02-07T23:07:04.061Z,99636.60
2018-02-07T23:09:32.554Z,99641.46
2018-02-07T23:12:01.021Z,99634.84
2018-02-07T23:14:29.517Z,99638.17
2018-02-07T23:16:58.005Z,99610.72
2018-02-07T23:19:26.461Z,99608.75
2018-02-07T23:21:54.949Z,99605.13
2018-02-07T23:24:23.440Z,99596.13
2018-02-07T23:26:51.989Z,99589.98
2018-02-07T23:29:20.444Z,99603.92
2018-02-07T23:31:48.909Z,99582.30
2018-02-07T23:34:17.412Z,99592.19
2018-02-07T23:36:45.865Z,99590.35
2018-02-07T23:39:14.358Z,99582.06
2018-02-07T23:41:42.853Z,99557.55
2018-02-07T23:44:11.348Z,99578.34
2018-02-07T23:46:39.817Z,99585.37
2018-02-07T23:49:08.313Z,99578.55
2018-02-07T23:51:36.751Z,99563.42
2018-02-07T23:54:05.241Z,99561.03
2018-02-07T23:56:33.738Z,99544.70
2018-02-07T23:59:02.238Z,99542.61
